Monticello Municipal Ellis Field Monticello US
ICAO: KLLQ
IATA: LLQ
Category: Medium
Scheduled Services: No

Elevation: 270 ft
TransAlt. 18000 ft.

Airport Communications:
ASOS:133.325
MEMPHIS CNTR:135.875
JONESBORO RDO:122.1
CTAF/UNICOM:122.8

KLLQ Zoom In..

If you have problems with the map follow the link
https://www.worldairports.se/pages/airport.php?
ICAO=KLLQ

Runways:

(A) RW 03 length 5020 ft width 75 ft
---- / hdg 31

(B) RW 21 length 5020 ft width 75 ft
---- / hdg 211

Location; KLLQ
Day. 08 / Time. 17.53 Zulu
* Altimeter: 30.09
* Temperature: 09° c. 48.2°f.
* Wind from: 180° Speed 07 kn.
Dewpoint: 08° c.
Visibility: 6 Statute Miles.
Clouds: Overcast 200 ft.
Conditions: Mist.

KLLQ 081753Z AUTO 18007KT 6SM BR OVC002 09/08 A3009 RMK AO2 SLP189 T00890078 10089 20061 58022 $


Wind From 180°
Speed 07 kn.

 
 
jpsmedia worldairports.se 2019   terms of use